Time;durP1;ratioP1;P1;durP2;ratioP2;P2;SDS_P1;SDS_P2;PMS_P1;PMS_P2;Temp;Humidity;BMP_temperature;BMP_pressure;BME280_temperature;BME280_humidity;BME280_pressure;Samples;Min_cycle;Max_cycle;Signal;HPM_P1;HPM_P2
2023/03/26 00:02:25;;;;;;;;;;;10.10;99.90;;;;;;5059401;28;19916;-90
2023/03/26 00:04:52;;;;;;;;;;;10.10;99.90;;;;;;5060556;28;19917;-88
2023/03/26 00:07:17;;;;;;;;;;;10.10;99.90;;;;;;5060510;28;19912;-89
2023/03/26 00:09:43;;;;;;;;;;;10.10;99.90;;;;;;5077461;28;20016;-88
2023/03/26 00:12:08;;;;;;;;;;;10.10;99.90;;;;;;5076552;28;20024;-88
2023/03/26 00:14:34;;;;;;;;;;;10.20;99.90;;;;;;5078897;28;20339;-90
2023/03/26 00:16:59;;;;;;;;;;;10.20;99.90;;;;;;5079545;28;20290;-89
2023/03/26 00:19:26;;;;;;;;;;;10.20;99.90;;;;;;5079763;28;19916;-89
2023/03/26 00:21:52;;;;;;;;;;;10.20;99.90;;;;;;5098055;28;20355;-88
2023/03/26 00:24:17;;;;;;;;;;;10.10;99.90;;;;;;5059732;28;19927;-88
2023/03/26 00:26:43;;;;;;;;;;;10.20;99.90;;;;;;5078962;28;19994;-89
2023/03/26 00:29:12;;;;;;;;;;;10.20;99.90;;;;;;5071476;28;20007;-88
2023/03/26 00:31:38;;;;;;;;;;;10.20;99.90;;;;;;5058724;28;20356;-86
2023/03/26 00:34:04;;;;;;;;;;;10.20;99.90;;;;;;5059132;28;19909;-87
2023/03/26 00:36:30;;;;;;;;;;;10.10;99.90;;;;;;5059094;28;20390;-89
2023/03/26 00:38:56;;;;;;;;;;;10.20;99.90;;;;;;5077256;28;19908;-89
2023/03/26 00:41:29;;;;;;;;;;;10.20;99.90;;;;;;5059026;28;19909;-90
2023/03/26 00:43:56;;;;;;;;;;;10.10;99.90;;;;;;5058870;28;19919;-88
2023/03/26 00:46:23;;;;;;;;;;;10.10;99.90;;;;;;5057938;28;19908;-87
2023/03/26 00:48:49;;;;;;;;;;;10.20;99.90;;;;;;5058047;28;19931;-88
2023/03/26 00:51:18;;;;;;;;;;;10.20;99.90;;;;;;5077384;28;19916;-90
2023/03/26 00:53:45;;;;;;;;;;;10.20;99.90;;;;;;5059226;28;19909;-89
2023/03/26 00:56:11;;;;;;;;;;;10.20;99.90;;;;;;5076737;28;19915;-89
2023/03/26 00:58:36;;;;;;;;;;;10.20;99.90;;;;;;5058357;28;19909;-89
2023/03/26 01:01:04;;;;;;;;;;;10.20;99.90;;;;;;5076647;28;19915;-88
2023/03/26 01:03:32;;;;;;;;;;;10.20;99.90;;;;;;5058672;28;19923;-90
2023/03/26 01:06:27;;;;;;;;;;;10.20;99.90;;;;;;5072477;28;20011;-88
2023/03/26 01:09:13;;;;;;;;;;;10.20;99.90;;;;;;5093323;28;19943;-88
2023/03/26 01:11:39;;;;;;;;;;;10.20;99.90;;;;;;5078484;28;19912;-90
2023/03/26 01:14:07;;;;;;;;;;;10.20;99.90;;;;;;5062099;28;19919;-91
2023/03/26 01:16:44;;;;;;;;;;;10.20;99.90;;;;;;5078474;28;19908;-90
2023/03/26 01:19:32;;;;;;;;;;;10.20;99.90;;;;;;5069905;28;20007;-86
2023/03/26 01:21:59;;;;;;;;;;;10.20;99.90;;;;;;5075722;28;19913;-86
2023/03/26 01:24:25;;;;;;;;;;;10.20;99.90;;;;;;5075509;28;20007;-88
2023/03/26 01:26:57;;;;;;;;;;;10.20;99.90;;;;;;5078737;28;19950;-89
2023/03/26 01:29:23;;;;;;;;;;;10.20;99.90;;;;;;5087461;28;19969;-88
2023/03/26 01:31:54;;;;;;;;;;;10.20;99.90;;;;;;5058325;28;20326;-89
2023/03/26 01:34:23;;;;;;;;;;;10.20;99.90;;;;;;5060161;28;20394;-90
2023/03/26 01:36:48;;;;;;;;;;;10.20;99.90;;;;;;5089721;28;19916;-90
2023/03/26 01:39:26;;;;;;;;;;;10.20;99.90;;;;;;5079178;28;19908;-92
2023/03/26 01:42:07;;;;;;;;;;;10.20;99.90;;;;;;5108285;28;19912;-90
2023/03/26 01:44:32;;;;;;;;;;;10.20;99.90;;;;;;5095447;28;19918;-89
2023/03/26 01:46:59;;;;;;;;;;;10.10;99.90;;;;;;5090515;28;19919;-89
2023/03/26 01:49:26;;;;;;;;;;;10.10;99.90;;;;;;5082318;28;19920;-89
2023/03/26 01:51:54;;;;;;;;;;;10.10;99.90;;;;;;5083090;28;19908;-87
2023/03/26 01:54:22;;;;;;;;;;;10.10;99.90;;;;;;5096056;28;19913;-89
2023/03/26 01:56:50;;;;;;;;;;;10.10;99.90;;;;;;5092750;28;19913;-92
2023/03/26 01:59:23;;;;;;;;;;;10.10;99.90;;;;;;5057718;28;19969;-89
2023/03/26 02:02:00;;;;;;;;;;;10.10;99.90;;;;;;5059204;28;20337;-88
2023/03/26 02:04:29;;;;;;;;;;;10.10;99.90;;;;;;5072687;28;19922;-88
2023/03/26 02:07:01;;;;;;;;;;;10.10;99.90;;;;;;5060448;28;19909;-88
2023/03/26 02:09:29;;;;;;;;;;;10.10;99.90;;;;;;5077803;28;19910;-89
2023/03/26 02:11:55;;;;;;;;;;;10.10;99.90;;;;;;5078632;28;19915;-91
2023/03/26 02:14:21;;;;;;;;;;;10.10;99.90;;;;;;5077860;28;19909;-88
2023/03/26 02:16:46;;;;;;;;;;;10.10;99.90;;;;;;5077549;28;19908;-88
2023/03/26 02:19:20;;;;;;;;;;;10.10;99.90;;;;;;5077680;28;19908;-90
2023/03/26 02:21:49;;;;;;;;;;;10.10;99.90;;;;;;5077876;28;19983;-88
2023/03/26 02:24:15;;;;;;;;;;;10.10;99.90;;;;;;5060691;28;20327;-89
2023/03/26 02:26:40;;;;;;;;;;;10.10;99.90;;;;;;5040231;28;19958;-88
2023/03/26 02:29:06;;;;;;;;;;;10.10;99.90;;;;;;5074875;28;19912;-87
2023/03/26 02:31:31;;;;;;;;;;;10.10;99.90;;;;;;5063818;28;19958;-90
2023/03/26 02:33:57;;;;;;;;;;;10.10;99.90;;;;;;5065100;28;19908;-88
2023/03/26 02:36:26;;;;;;;;;;;10.10;99.90;;;;;;5043824;28;19912;-89
2023/03/26 02:38:53;;;;;;;;;;;10.10;99.90;;;;;;5061450;28;20003;-92
2023/03/26 02:41:18;;;;;;;;;;;10.10;99.90;;;;;;5064933;28;19912;-89
2023/03/26 02:43:44;;;;;;;;;;;10.10;99.90;;;;;;5088393;28;20324;-86
2023/03/26 02:46:09;;;;;;;;;;;10.00;99.90;;;;;;5095279;28;19916;-88
2023/03/26 02:48:35;;;;;;;;;;;10.10;99.90;;;;;;5060935;28;20018;-86
2023/03/26 02:51:01;;;;;;;;;;;10.10;99.90;;;;;;5091403;28;20011;-92
2023/03/26 02:53:29;;;;;;;;;;;10.00;99.90;;;;;;5062896;28;19944;-88
2023/03/26 02:55:56;;;;;;;;;;;10.00;99.90;;;;;;5079830;28;19953;-89
2023/03/26 02:58:24;;;;;;;;;;;9.90;99.90;;;;;;5073040;28;19913;-90
2023/03/26 03:00:53;;;;;;;;;;;9.90;99.90;;;;;;5069161;28;20280;-87
2023/03/26 03:03:23;;;;;;;;;;;10.00;99.90;;;;;;5076283;28;20291;-89
2023/03/26 03:05:52;;;;;;;;;;;9.90;99.90;;;;;;5063168;28;20323;-87
2023/03/26 03:08:19;;;;;;;;;;;9.90;99.90;;;;;;5047271;28;19978;-90
2023/03/26 03:11:01;;;;;;;;;;;9.90;99.90;;;;;;5063413;28;19916;-91
2023/03/26 03:13:27;;;;;;;;;;;9.90;99.90;;;;;;5060579;28;19909;-89
2023/03/26 03:15:53;;;;;;;;;;;9.90;99.90;;;;;;5061340;28;20012;-87
2023/03/26 03:18:18;;;;;;;;;;;9.90;99.90;;;;;;5073796;28;20490;-89
2023/03/26 03:20:44;;;;;;;;;;;9.90;99.90;;;;;;5074655;28;19916;-89
2023/03/26 03:23:10;;;;;;;;;;;9.90;99.90;;;;;;5044342;28;19923;-88
2023/03/26 03:25:37;;;;;;;;;;;9.90;99.90;;;;;;5060759;28;19917;-91
2023/03/26 03:28:03;;;;;;;;;;;9.90;99.90;;;;;;5043993;28;19912;-89
2023/03/26 03:30:28;;;;;;;;;;;9.90;99.90;;;;;;5059822;28;19931;-88
2023/03/26 03:32:57;;;;;;;;;;;9.90;99.90;;;;;;5095733;28;20352;-90
2023/03/26 03:35:26;;;;;;;;;;;10.00;99.90;;;;;;5059783;28;19962;-90
2023/03/26 03:37:52;;;;;;;;;;;10.00;99.90;;;;;;5059480;28;20355;-87
2023/03/26 03:40:18;;;;;;;;;;;10.00;99.90;;;;;;5059226;28;20005;-91
2023/03/26 03:42:45;;;;;;;;;;;10.10;99.90;;;;;;5058604;28;20273;-90
2023/03/26 03:45:11;;;;;;;;;;;10.00;99.90;;;;;;5059855;28;19913;-89
2023/03/26 03:47:36;;;;;;;;;;;10.00;99.90;;;;;;5059297;28;19909;-87
2023/03/26 03:50:03;;;;;;;;;;;10.00;99.90;;;;;;5055887;28;20019;-89
2023/03/26 03:52:28;;;;;;;;;;;10.00;99.90;;;;;;5057378;28;19916;-90
2023/03/26 03:54:56;;;;;;;;;;;10.00;99.90;;;;;;5056108;28;19913;-88
2023/03/26 03:57:22;;;;;;;;;;;10.00;99.90;;;;;;5057187;28;19963;-88
2023/03/26 03:59:48;;;;;;;;;;;10.00;99.90;;;;;;5055992;28;19909;-86
2023/03/26 04:02:13;;;;;;;;;;;10.00;99.90;;;;;;5039004;28;20050;-87
2023/03/26 04:04:39;;;;;;;;;;;10.00;99.90;;;;;;5055390;28;20066;-88
2023/03/26 04:07:05;;;;;;;;;;;10.00;99.90;;;;;;5039376;28;20018;-87
2023/03/26 04:09:30;;;;;;;;;;;10.00;99.90;;;;;;5055690;28;19908;-90
2023/03/26 04:11:56;;;;;;;;;;;10.10;99.90;;;;;;5055588;28;19916;-89
2023/03/26 04:14:21;;;;;;;;;;;10.00;99.90;;;;;;5072394;28;20277;-89
2023/03/26 04:16:48;;;;;;;;;;;10.10;99.90;;;;;;5096896;28;19908;-90
2023/03/26 04:19:13;;;;;;;;;;;10.00;99.90;;;;;;5042955;28;19913;-89
2023/03/26 04:21:41;;;;;;;;;;;10.10;99.90;;;;;;5059094;28;19924;-90
2023/03/26 04:24:07;;;;;;;;;;;10.00;99.90;;;;;;5042246;28;19944;-92
2023/03/26 04:26:34;;;;;;;;;;;10.00;99.90;;;;;;5076485;28;19908;-87
2023/03/26 04:29:02;;;;;;;;;;;10.00;99.90;;;;;;5044251;28;20330;-89
2023/03/26 04:31:29;;;;;;;;;;;10.00;99.90;;;;;;5078816;28;20275;-89
2023/03/26 04:34:04;;;;;;;;;;;10.00;99.90;;;;;;5078891;28;19919;-88
2023/03/26 04:36:30;;;;;;;;;;;10.00;99.90;;;;;;5078696;28;19999;-88
2023/03/26 04:38:57;;;;;;;;;;;10.00;99.90;;;;;;5079242;28;20034;-90
2023/03/26 04:41:25;;;;;;;;;;;10.00;99.90;;;;;;5062984;28;19912;-89
2023/03/26 04:43:51;;;;;;;;;;;10.00;99.90;;;;;;5081978;28;19912;-88
2023/03/26 04:46:23;;;;;;;;;;;10.10;99.90;;;;;;5062124;28;19918;-91
2023/03/26 04:48:49;;;;;;;;;;;10.00;99.90;;;;;;5062753;28;20368;-87
2023/03/26 04:51:16;;;;;;;;;;;10.00;99.90;;;;;;5079562;28;19915;-89
2023/03/26 04:53:44;;;;;;;;;;;10.10;99.90;;;;;;5079044;28;19908;-89
2023/03/26 04:56:27;;;;;;;;;;;10.00;99.90;;;;;;5096497;28;19913;-88
2023/03/26 04:58:55;;;;;;;;;;;10.00;99.90;;;;;;5078625;28;19908;-87
2023/03/26 05:01:23;;;;;;;;;;;10.10;99.90;;;;;;5096358;28;20421;-87
2023/03/26 05:03:48;;;;;;;;;;;10.10;99.90;;;;;;5102353;28;19916;-89
2023/03/26 05:06:15;;;;;;;;;;;10.10;99.90;;;;;;5079033;28;19919;-89
2023/03/26 05:08:40;;;;;;;;;;;10.20;99.90;;;;;;5077808;28;19919;-89
2023/03/26 05:11:10;;;;;;;;;;;10.20;99.90;;;;;;5079032;28;19908;-89
2023/03/26 05:13:36;;;;;;;;;;;10.20;99.90;;;;;;5097208;28;19908;-91
2023/03/26 05:16:01;;;;;;;;;;;10.20;99.90;;;;;;5091474;28;19919;-87
2023/03/26 05:18:27;;;;;;;;;;;10.20;99.90;;;;;;5069229;28;19908;-92
2023/03/26 05:20:52;;;;;;;;;;;10.20;99.90;;;;;;5059021;28;19916;-88
2023/03/26 05:23:18;;;;;;;;;;;10.20;99.90;;;;;;5058432;28;19920;-91
2023/03/26 05:25:43;;;;;;;;;;;10.20;99.90;;;;;;5057943;28;20271;-88
2023/03/26 05:28:09;;;;;;;;;;;10.20;99.90;;;;;;5075595;28;19916;-88
2023/03/26 05:30:35;;;;;;;;;;;10.20;99.90;;;;;;5057813;28;19909;-90
2023/03/26 05:33:01;;;;;;;;;;;10.20;99.90;;;;;;5057891;28;20007;-90
2023/03/26 05:35:27;;;;;;;;;;;10.20;99.90;;;;;;5076135;28;19912;-88
2023/03/26 05:37:52;;;;;;;;;;;10.20;99.90;;;;;;5059612;28;19913;-90
2023/03/26 05:40:18;;;;;;;;;;;10.20;99.90;;;;;;5055352;28;20002;-91
2023/03/26 05:42:44;;;;;;;;;;;10.30;99.90;;;;;;5097255;28;19911;-91
2023/03/26 05:45:10;;;;;;;;;;;10.20;99.90;;;;;;5057949;28;20701;-90
2023/03/26 05:47:36;;;;;;;;;;;10.30;99.90;;;;;;5075795;28;19908;-91
2023/03/26 05:50:02;;;;;;;;;;;10.30;99.90;;;;;;5074097;28;19943;-90
2023/03/26 05:52:27;;;;;;;;;;;10.20;99.90;;;;;;5075702;28;20455;-89
2023/03/26 05:54:53;;;;;;;;;;;10.30;99.90;;;;;;5057424;28;19912;-89
2023/03/26 05:57:18;;;;;;;;;;;10.30;99.90;;;;;;5058328;28;20016;-88
2023/03/26 05:59:44;;;;;;;;;;;10.30;99.90;;;;;;5057264;28;19961;-89
2023/03/26 06:02:10;;;;;;;;;;;10.30;99.90;;;;;;5077612;28;19961;-90
2023/03/26 06:04:39;;;;;;;;;;;10.30;99.90;;;;;;5061292;28;19917;-91
2023/03/26 06:07:11;;;;;;;;;;;10.20;99.90;;;;;;5061333;28;19981;-88
2023/03/26 06:09:37;;;;;;;;;;;10.20;99.90;;;;;;5070595;28;19909;-88
2023/03/26 06:12:06;;;;;;;;;;;10.20;99.90;;;;;;5075078;28;19975;-89
2023/03/26 06:14:32;;;;;;;;;;;10.20;99.90;;;;;;5075224;28;19908;-89
2023/03/26 06:16:57;;;;;;;;;;;10.20;99.90;;;;;;5074186;28;19912;-89
2023/03/26 06:19:23;;;;;;;;;;;10.10;99.90;;;;;;5062685;28;20402;-88
2023/03/26 06:21:49;;;;;;;;;;;10.20;99.90;;;;;;5057535;28;19923;-90
2023/03/26 06:24:15;;;;;;;;;;;10.20;99.90;;;;;;5041181;28;19970;-90
2023/03/26 06:26:41;;;;;;;;;;;10.20;99.90;;;;;;5044694;28;19962;-91
2023/03/26 06:29:06;;;;;;;;;;;10.10;99.90;;;;;;5095700;28;19912;-89
2023/03/26 06:31:32;;;;;;;;;;;10.10;99.90;;;;;;5047519;28;19955;-91
2023/03/26 06:33:58;;;;;;;;;;;10.20;99.90;;;;;;5057586;28;19909;-89
2023/03/26 06:36:23;;;;;;;;;;;10.10;99.90;;;;;;5058069;28;20284;-92
2023/03/26 06:38:49;;;;;;;;;;;10.20;99.90;;;;;;5058410;28;19916;-90
2023/03/26 06:41:15;;;;;;;;;;;10.20;99.90;;;;;;5080868;28;20261;-88
2023/03/26 06:43:40;;;;;;;;;;;10.20;99.90;;;;;;5058351;28;19920;-89
2023/03/26 06:46:06;;;;;;;;;;;10.20;99.90;;;;;;5058898;28;20361;-91
2023/03/26 06:48:31;;;;;;;;;;;10.20;99.90;;;;;;5058599;28;19915;-88
2023/03/26 06:50:57;;;;;;;;;;;10.20;99.90;;;;;;5042385;28;20419;-90
2023/03/26 06:53:23;;;;;;;;;;;10.20;99.90;;;;;;5078458;28;19908;-89
2023/03/26 06:55:48;;;;;;;;;;;10.10;99.90;;;;;;5073359;28;20088;-88
2023/03/26 06:58:15;;;;;;;;;;;10.10;99.90;;;;;;5096133;28;19998;-88
2023/03/26 07:00:41;;;;;;;;;;;10.20;99.90;;;;;;5077871;28;19908;-88
2023/03/26 07:03:07;;;;;;;;;;;10.20;99.90;;;;;;5097819;28;19912;-89
2023/03/26 07:05:32;;;;;;;;;;;10.10;99.90;;;;;;5097167;28;19912;-89
2023/03/26 07:07:58;;;;;;;;;;;10.10;99.90;;;;;;5078968;28;20343;-89
2023/03/26 07:10:24;;;;;;;;;;;10.10;99.90;;;;;;5062640;28;19920;-89
2023/03/26 07:12:49;;;;;;;;;;;10.20;99.90;;;;;;5057181;28;19920;-90
2023/03/26 07:15:15;;;;;;;;;;;10.10;99.90;;;;;;5073330;28;19908;-89
2023/03/26 07:17:40;;;;;;;;;;;10.10;99.90;;;;;;5082261;28;19961;-90
2023/03/26 07:20:07;;;;;;;;;;;10.10;99.90;;;;;;5066891;28;19912;-88
2023/03/26 07:22:32;;;;;;;;;;;10.10;99.90;;;;;;5058222;28;19917;-88
2023/03/26 07:24:58;;;;;;;;;;;10.10;99.90;;;;;;5068982;28;19919;-88
2023/03/26 07:27:43;;;;;;;;;;;10.20;99.90;;;;;;5084454;28;20406;-88
2023/03/26 07:30:08;;;;;;;;;;;10.20;99.90;;;;;;5081593;28;19908;-87
2023/03/26 07:32:34;;;;;;;;;;;10.10;99.90;;;;;;5099171;28;19908;-88
2023/03/26 07:35:11;;;;;;;;;;;10.20;99.90;;;;;;5083998;28;19942;-87
2023/03/26 07:37:42;;;;;;;;;;;10.10;99.90;;;;;;5081502;28;19908;-88
2023/03/26 07:40:27;;;;;;;;;;;10.10;99.90;;;;;;5081110;28;19915;-89
2023/03/26 07:42:52;;;;;;;;;;;10.20;99.90;;;;;;5080821;28;19919;-88
2023/03/26 07:45:21;;;;;;;;;;;10.20;99.90;;;;;;5073053;28;19999;-88
2023/03/26 07:47:48;;;;;;;;;;;10.20;99.90;;;;;;5064325;28;19909;-90
2023/03/26 07:50:17;;;;;;;;;;;10.20;99.90;;;;;;5063791;28;20015;-90
2023/03/26 07:55:46;;;;;;;;;;;10.20;99.90;;;;;;5080550;28;20000;-89
2023/03/26 07:58:14;;;;;;;;;;;10.10;99.90;;;;;;5080144;28;19960;-88
2023/03/26 08:00:44;;;;;;;;;;;10.10;99.90;;;;;;5062035;28;19956;-88
2023/03/26 08:03:12;;;;;;;;;;;10.10;99.90;;;;;;5078817;28;19916;-88
2023/03/26 08:05:44;;;;;;;;;;;10.10;99.90;;;;;;5080143;28;20364;-89
2023/03/26 08:08:26;;;;;;;;;;;10.10;99.90;;;;;;5061945;28;19919;-93
2023/03/26 08:11:10;;;;;;;;;;;10.20;99.90;;;;;;5061728;28;19909;-90
2023/03/26 08:13:55;;;;;;;;;;;10.10;99.90;;;;;;5078346;28;19968;-87
2023/03/26 08:19:43;;;;;;;;;;;10.10;99.90;;;;;;5037161;28;19920;-88
2023/03/26 08:22:25;;;;;;;;;;;10.00;99.90;;;;;;5060014;28;20078;-88
2023/03/26 08:28:32;;;;;;;;;;;10.00;99.90;;;;;;5077373;28;19923;-86
2023/03/26 08:31:01;;;;;;;;;;;9.90;99.90;;;;;;5089628;28;19920;-86
2023/03/26 08:33:29;;;;;;;;;;;9.90;99.90;;;;;;5062379;28;19947;-88
2023/03/26 08:35:55;;;;;;;;;;;9.80;99.90;;;;;;5080441;28;19908;-89
2023/03/26 08:38:23;;;;;;;;;;;9.80;99.90;;;;;;5078084;28;19923;-88
2023/03/26 08:40:52;;;;;;;;;;;9.80;99.90;;;;;;5079690;28;19912;-93
2023/03/26 08:43:35;;;;;;;;;;;9.80;99.90;;;;;;5100993;28;19933;-89
2023/03/26 08:46:10;;;;;;;;;;;9.70;99.90;;;;;;5091567;28;19899;-88
2023/03/26 08:48:42;;;;;;;;;;;9.80;99.90;;;;;;5060839;28;19935;-89
2023/03/26 08:54:29;;;;;;;;;;;9.70;99.90;;;;;;5081702;28;19961;-93
2023/03/26 08:57:01;;;;;;;;;;;9.70;99.90;;;;;;5063757;28;19909;-88
2023/03/26 08:59:45;;;;;;;;;;;9.70;99.90;;;;;;5081973;28;19908;-92
2023/03/26 09:02:14;;;;;;;;;;;9.70;99.90;;;;;;5064356;28;20391;-89
2023/03/26 09:04:52;;;;;;;;;;;9.70;99.90;;;;;;5063396;28;19924;-89
2023/03/26 09:10:30;;;;;;;;;;;9.70;99.90;;;;;;5081105;28;20065;-89
2023/03/26 09:19:05;;;;;;;;;;;9.80;99.90;;;;;;5078239;28;19950;-87
2023/03/26 09:21:51;;;;;;;;;;;9.80;99.90;;;;;;5061427;28;19912;-87
2023/03/26 09:24:26;;;;;;;;;;;9.80;99.90;;;;;;5063220;28;19935;-89
2023/03/26 09:27:13;;;;;;;;;;;9.90;99.90;;;;;;5062319;28;19968;-88
2023/03/26 09:29:45;;;;;;;;;;;9.90;99.90;;;;;;5062908;28;19915;-88
2023/03/26 09:32:16;;;;;;;;;;;9.90;99.90;;;;;;5065129;28;19893;-88
2023/03/26 09:34:56;;;;;;;;;;;9.90;99.90;;;;;;5070227;28;19919;-87
2023/03/26 09:37:36;;;;;;;;;;;10.00;99.90;;;;;;5074546;28;19944;-88
2023/03/26 09:40:16;;;;;;;;;;;10.00;99.90;;;;;;5081026;28;19908;-89
2023/03/26 09:42:48;;;;;;;;;;;10.00;99.90;;;;;;5064137;28;19913;-87
2023/03/26 09:45:30;;;;;;;;;;;10.10;99.90;;;;;;5082593;28;19913;-87
2023/03/26 09:48:08;;;;;;;;;;;10.10;99.90;;;;;;5082909;28;19908;-89
2023/03/26 09:50:52;;;;;;;;;;;10.10;99.90;;;;;;5062890;28;19920;-89
2023/03/26 09:53:38;;;;;;;;;;;10.20;99.90;;;;;;5082315;28;19912;-89
2023/03/26 09:59:15;;;;;;;;;;;10.30;99.90;;;;;;5047012;28;19953;-88
2023/03/26 10:01:52;;;;;;;;;;;10.20;99.90;;;;;;5063668;28;19909;-87
2023/03/26 10:04:39;;;;;;;;;;;10.20;99.90;;;;;;5065499;28;19914;-88
2023/03/26 10:07:26;;;;;;;;;;;10.30;99.90;;;;;;5081368;28;19954;-86
2023/03/26 10:09:54;;;;;;;;;;;10.30;99.90;;;;;;5066001;28;20011;-92
2023/03/26 10:12:24;;;;;;;;;;;10.30;99.90;;;;;;5082622;28;19919;-90
2023/03/26 10:14:56;;;;;;;;;;;10.30;99.90;;;;;;5064638;28;19917;-86
2023/03/26 10:17:48;;;;;;;;;;;10.40;99.90;;;;;;5072849;28;19957;-87
2023/03/26 10:20:26;;;;;;;;;;;10.40;99.90;;;;;;5077845;28;19914;-89
2023/03/26 10:22:52;;;;;;;;;;;10.40;99.90;;;;;;5082575;28;19912;-87
2023/03/26 10:25:19;;;;;;;;;;;10.40;99.90;;;;;;5081997;28;19934;-88
2023/03/26 10:27:45;;;;;;;;;;;10.50;99.90;;;;;;5083249;28;20003;-89
2023/03/26 10:30:14;;;;;;;;;;;10.60;99.90;;;;;;5087011;28;19908;-88
2023/03/26 10:33:01;;;;;;;;;;;10.50;99.90;;;;;;5085764;28;19912;-87
2023/03/26 10:38:48;;;;;;;;;;;10.60;99.90;;;;;;5100038;28;19919;-86
2023/03/26 10:41:14;;;;;;;;;;;10.60;99.90;;;;;;5096239;28;19962;-88
2023/03/26 10:43:49;;;;;;;;;;;10.60;99.90;;;;;;5070674;28;19920;-90
2023/03/26 10:49:36;;;;;;;;;;;10.70;99.90;;;;;;5077154;28;19974;-91
2023/03/26 10:52:10;;;;;;;;;;;10.80;99.90;;;;;;5062630;28;20385;-91
2023/03/26 10:54:55;;;;;;;;;;;10.80;99.90;;;;;;5083175;28;20007;-89
2023/03/26 10:57:23;;;;;;;;;;;10.80;99.90;;;;;;5081048;28;19915;-87
2023/03/26 10:59:50;;;;;;;;;;;10.90;99.90;;;;;;5063816;28;19936;-89
2023/03/26 11:02:38;;;;;;;;;;;10.90;99.90;;;;;;5062640;28;19913;-89
2023/03/26 11:05:18;;;;;;;;;;;10.90;99.90;;;;;;5061390;28;19966;-89
2023/03/26 11:08:03;;;;;;;;;;;11.00;99.90;;;;;;5062242;28;19944;-92
2023/03/26 11:10:55;;;;;;;;;;;11.00;99.90;;;;;;5068192;28;19909;-93
2023/03/26 11:13:28;;;;;;;;;;;11.00;99.90;;;;;;5063376;28;20061;-90
2023/03/26 11:16:02;;;;;;;;;;;11.00;99.90;;;;;;5081669;28;19908;-94
2023/03/26 11:18:34;;;;;;;;;;;11.00;99.90;;;;;;5063248;28;19999;-91
2023/03/26 11:21:25;;;;;;;;;;;11.00;99.90;;;;;;5064107;28;19912;-90
2023/03/26 11:24:00;;;;;;;;;;;10.90;99.90;;;;;;5074335;28;19922;-91
2023/03/26 11:26:51;;;;;;;;;;;11.00;99.90;;;;;;5085483;28;19915;-88
2023/03/26 11:29:23;;;;;;;;;;;11.00;99.90;;;;;;5088709;28;19936;-92
2023/03/26 11:31:48;;;;;;;;;;;11.00;99.90;;;;;;5064281;28;19913;-90
2023/03/26 11:34:19;;;;;;;;;;;11.00;99.90;;;;;;5064242;28;19913;-90
2023/03/26 11:36:46;;;;;;;;;;;10.90;99.90;;;;;;5064589;28;19915;-89
2023/03/26 11:39:26;;;;;;;;;;;10.90;99.90;;;;;;5065368;28;19931;-92
2023/03/26 11:42:02;;;;;;;;;;;10.90;99.90;;;;;;5064268;28;19909;-94
2023/03/26 11:44:32;;;;;;;;;;;10.90;99.90;;;;;;5065786;28;19913;-95
2023/03/26 11:47:03;;;;;;;;;;;10.80;99.90;;;;;;5065563;28;19915;-92
2023/03/26 11:49:29;;;;;;;;;;;10.80;99.90;;;;;;5062815;28;20354;-95
2023/03/26 11:51:55;;;;;;;;;;;10.80;99.90;;;;;;5064791;28;19916;-91
2023/03/26 11:54:21;;;;;;;;;;;10.80;99.90;;;;;;5063458;28;19909;-92
2023/03/26 11:56:48;;;;;;;;;;;10.80;99.90;;;;;;5069993;28;19908;-94
2023/03/26 11:59:23;;;;;;;;;;;10.80;99.90;;;;;;5104088;28;20011;-90
2023/03/26 12:02:14;;;;;;;;;;;10.80;99.90;;;;;;5082632;28;19917;-90
2023/03/26 12:04:42;;;;;;;;;;;10.80;99.90;;;;;;5080309;28;19916;-91
2023/03/26 12:07:44;;;;;;;;;;;10.70;99.90;;;;;;5078350;28;19924;-90
2023/03/26 12:10:31;;;;;;;;;;;10.90;99.90;;;;;;5071070;28;19908;-90
2023/03/26 12:12:59;;;;;;;;;;;10.80;99.90;;;;;;5072777;28;19954;-90
2023/03/26 12:15:25;;;;;;;;;;;10.80;99.90;;;;;;5080097;28;19954;-90
2023/03/26 12:18:03;;;;;;;;;;;10.70;99.90;;;;;;5062570;28;19913;-93
2023/03/26 12:20:30;;;;;;;;;;;10.70;99.90;;;;;;5066518;28;19915;-91
2023/03/26 12:22:59;;;;;;;;;;;10.80;99.90;;;;;;5062713;28;20007;-89
2023/03/26 12:25:25;;;;;;;;;;;10.70;99.90;;;;;;5062471;28;19920;-92
2023/03/26 12:27:56;;;;;;;;;;;10.70;99.90;;;;;;5060640;28;19908;-91
2023/03/26 12:30:25;;;;;;;;;;;10.70;99.90;;;;;;5060481;28;19908;-93
2023/03/26 12:32:55;;;;;;;;;;;10.70;99.90;;;;;;5061140;28;20336;-86
2023/03/26 12:35:28;;;;;;;;;;;10.70;99.90;;;;;;5061124;28;19908;-89
2023/03/26 12:37:56;;;;;;;;;;;10.70;99.90;;;;;;5060488;28;19908;-89
2023/03/26 12:40:30;;;;;;;;;;;10.60;99.90;;;;;;5059945;28;19931;-88
2023/03/26 12:42:57;;;;;;;;;;;10.70;99.90;;;;;;5061061;28;19912;-91
2023/03/26 12:45:27;;;;;;;;;;;10.60;99.90;;;;;;5061601;28;19958;-89
2023/03/26 12:48:09;;;;;;;;;;;10.60;99.90;;;;;;5062238;28;20358;-96
2023/03/26 12:57:06;;;;;;;;;;;10.60;99.90;;;;;;5098683;28;20470;-90
2023/03/26 13:00:02;;;;;;;;;;;10.60;99.90;;;;;;5096499;28;20009;-92
2023/03/26 13:03:06;;;;;;;;;;;10.60;99.90;;;;;;5082894;28;19919;-90
2023/03/26 13:05:43;;;;;;;;;;;10.60;99.90;;;;;;5080298;28;19912;-91
2023/03/26 13:08:30;;;;;;;;;;;10.60;99.90;;;;;;5100158;28;19916;-91
2023/03/26 13:11:19;;;;;;;;;;;10.50;99.90;;;;;;5080872;28;19908;-92
2023/03/26 13:14:14;;;;;;;;;;;10.50;99.90;;;;;;5036441;28;19936;-90
2023/03/26 13:26:25;;;;;;;;;;;10.40;99.90;;;;;;5097893;28;20053;-93
2023/03/26 13:32:13;;;;;;;;;;;10.30;99.90;;;;;;5086256;28;19915;-91
2023/03/26 13:35:08;;;;;;;;;;;10.40;99.90;;;;;;5059761;28;19913;-90
2023/03/26 13:37:38;;;;;;;;;;;10.30;99.90;;;;;;4996258;28;19916;-88
2023/03/26 13:40:06;;;;;;;;;;;10.30;99.90;;;;;;5070829;28;19908;-87
2023/03/26 13:42:39;;;;;;;;;;;10.30;99.90;;;;;;5073403;28;19919;-89
2023/03/26 13:45:05;;;;;;;;;;;10.30;99.90;;;;;;5059270;28;19912;-88
2023/03/26 13:47:53;;;;;;;;;;;10.20;99.90;;;;;;5064370;28;23480;-94
2023/03/26 13:53:33;;;;;;;;;;;10.30;99.90;;;;;;5025666;28;19917;-94
2023/03/26 13:56:29;;;;;;;;;;;10.30;99.90;;;;;;5019565;28;20374;-92
2023/03/26 13:58:59;;;;;;;;;;;10.30;99.90;;;;;;5063394;28;19951;-89
2023/03/26 14:07:42;;;;;;;;;;;10.30;99.90;;;;;;4995230;28;19932;-93
2023/03/26 14:13:13;;;;;;;;;;;10.30;99.90;;;;;;4991731;28;19916;-88
2023/03/26 14:18:57;;;;;;;;;;;10.30;99.90;;;;;;4977069;28;20024;-90
2023/03/26 14:24:59;;;;;;;;;;;;;;;;;;;;;
2023/03/26 14:27:39;;;;;;;;;;;10.30;99.90;;;;;;5079492;28;19976;-94
2023/03/26 14:30:11;;;;;;;;;;;10.30;99.90;;;;;;5067458;28;20375;-90
2023/03/26 14:35:45;;;;;;;;;;;10.30;99.90;;;;;;5087640;28;20383;-92
2023/03/26 14:38:32;;;;;;;;;;;10.30;99.90;;;;;;5075474;28;19908;-89
2023/03/26 14:41:03;;;;;;;;;;;10.20;99.90;;;;;;5070930;28;19954;-91
2023/03/26 14:43:47;;;;;;;;;;;10.30;99.90;;;;;;5074197;28;19926;-88
2023/03/26 14:46:16;;;;;;;;;;;10.20;99.90;;;;;;5068173;28;19913;-91
2023/03/26 14:48:46;;;;;;;;;;;10.20;99.90;;;;;;5083336;28;19912;-94
2023/03/26 14:54:42;;;;;;;;;;;10.30;99.90;;;;;;5075115;28;19915;-89
2023/03/26 14:57:35;;;;;;;;;;;10.20;99.90;;;;;;5070472;28;20372;-93
2023/03/26 15:00:01;;;;;;;;;;;10.20;99.90;;;;;;5069993;28;19904;-90
2023/03/26 15:02:46;;;;;;;;;;;10.20;99.90;;;;;;5066488;28;19907;-89
2023/03/26 15:05:13;;;;;;;;;;;10.20;99.90;;;;;;5072609;28;19915;-91
2023/03/26 15:14:06;;;;;;;;;;;10.30;99.90;;;;;;5088145;28;19954;-91
2023/03/26 15:16:57;;;;;;;;;;;10.30;99.90;;;;;;5063244;28;19909;-93
2023/03/26 15:19:39;;;;;;;;;;;10.20;99.90;;;;;;5062555;28;19962;-91
2023/03/26 15:22:23;;;;;;;;;;;10.30;99.90;;;;;;5064176;28;19912;-90
2023/03/26 15:25:09;;;;;;;;;;;10.30;99.90;;;;;;5062606;28;19920;-91
2023/03/26 15:27:44;;;;;;;;;;;10.30;99.90;;;;;;5094888;28;19901;-96
2023/03/26 15:30:29;;;;;;;;;;;10.20;99.90;;;;;;5082072;28;19904;-92
2023/03/26 15:33:06;;;;;;;;;;;;;;;;;;;;;
2023/03/26 15:36:00;;;;;;;;;;;10.20;99.90;;;;;;5111463;28;19928;-96
2023/03/26 15:38:29;;;;;;;;;;;10.20;99.90;;;;;;5085828;28;19988;-92
2023/03/26 15:41:11;;;;;;;;;;;10.20;99.90;;;;;;5083270;28;19904;-91
2023/03/26 15:43:49;;;;;;;;;;;10.20;99.90;;;;;;5088227;28;19994;-92
2023/03/26 15:46:45;;;;;;;;;;;10.20;99.90;;;;;;5065584;28;19988;-95
2023/03/26 15:49:29;;;;;;;;;;;10.10;99.90;;;;;;5063838;28;19990;-95
2023/03/26 15:55:09;;;;;;;;;;;10.00;99.90;;;;;;5067177;28;19939;-96
2023/03/26 15:58:07;;;;;;;;;;;10.00;99.90;;;;;;5066097;28;20359;-96
2023/03/26 16:00:40;;;;;;;;;;;10.00;99.90;;;;;;5067027;28;20853;-94
2023/03/26 16:03:27;;;;;;;;;;;10.00;99.90;;;;;;5060575;28;19917;-96
2023/03/26 16:06:05;;;;;;;;;;;;;;;;;;;;;
2023/03/26 16:08:35;;;;;;;;;;;9.90;99.90;;;;;;5068325;28;20016;-95
2023/03/26 16:11:06;;;;;;;;;;;9.90;99.90;;;;;;5063657;28;19978;-94
2023/03/26 16:13:34;;;;;;;;;;;9.90;99.90;;;;;;5070944;28;19897;-92